Aviation Digital Data Service (ADDS)

Output produced by METARs form (0908 UTC 10 December 2022)
found at http://aviationweather.gov/metar/data/
 
METAR text: KCVH 100855Z AUTO 00000KT 10SM OVC016 11/09 A3004 RMK A01
Conditions at: KCVH (HOLLISTER MUNI , CA, US) observed 0855 UTC 10 December 2022
Temperature: 11.0°C (52°F)
Dewpoint: 9.0°C (48°F) [RH = 87%]
Pressure (altimeter): 30.04 inches Hg (1017.4 mb)
Winds: calm
Visibility: 10 or more miles (16+ km)
Ceiling: 1600 feet AGL
Clouds: overcast cloud deck at 1600 feet AGL
Weather: automated observation with no human augmentation;
there may or may not be significant weather present at this time